Portada
METAR-TAF:

METAR-TAF

Aeropuertos :

Aeropuerto Civil de Amán

Amán, Jordania

latitud: 31-59N, longitud: 035-59E, altitud: 767 m

Observación

El informe se hizo hace 48 minutos, a las 19:00 UTC
Viento 3 kt del oeste
Temperatura 12°C
Humedad 58%
Presión 1021 hPa
Visibilidad: 7000 m

METAR: OJAM 181900Z 26003KT 7000 NSC 12/04 Q1021 NOSIG

Hora: 21:48 (19:48 UTC)

Pronóstico

El informe se hizo hace 2 horas y 48 minutos, a las 17:00 UTC
Pronóstico válido del 18 a las 18 UTC al 19 a las 24 UTC
Viento 6 kt del norte-noroeste
Visibilidad: 6000 m
Temporalmente
del 19 a las 02 UTC al 19 a las 06 UTC
Viento 1 kt con dirección variable
Visibilidad: 4000 m
neblina

TAF: OJAM 181700Z 1818/1924 33006KT 6000 NSC TEMPO 1902/1906 VRB01KT 4000 BR

Observaciones y pronósticos meteorológicos de más de 4000 aeropuertos (mensajes METAR y TAF).

Los puntos amarillos y rojos representan las estaciones disponibles.

Ponga el ratón en el punto deseado para ver el nombre de la estación.

Haga clic para ver las observaciones y los pronósticos meteorológicos.

Para cambiar el mapa : haga clic en los botones verdes con una cruz de color negro para hacer un zoom, en el botón verde con un guión para alejar o en las flechas verdes para mapas adyacentes.


METAR-TAF: